This is the latest recevied weather packets stored in our database for station/object VK3BKO-13. If no packets are shown the sender has not sent any weather packets the latest 10 day(s).
| Time | Temp. | Humidity | Pressure | Rain* | Wind** | Luminosity | Snow |
|---|---|---|---|---|---|---|---|
| 1777630624 | 18.89° C | 60% | 1021.4 hPa | 0 mm | - | 0 W/m² | - |
| 1777629724 | 18.89° C | 60% | 1021.4 hPa | 0 mm | - | 0 W/m² | - |
| 1777628824 | 20° C | 56% | 1021.4 hPa | 0 mm | - | 0 W/m² | - |
| 1777627924 | 21.11° C | 53% | 1021.4 hPa | 0 mm | - | 0 W/m² | - |
| 1777627024 | 21.67° C | 52% | 1021.4 hPa | 0 mm | - | 0 W/m² | - |
| 1777626124 | 21.67° C | 51% | 1021.4 hPa | 0 mm | - | 0 W/m² | - |
| 1777625224 | 21.67° C | 50% | 1021.4 hPa | 0 mm | - | 0 W/m² | - |
| 1777624324 | 21.67° C | 50% | 1021.4 hPa | 0 mm | - | 0 W/m² | - |
| 1777623424 | 22.22° C | 49% | 1021 hPa | 0 mm | - | 0 W/m² | - |
| 1777622524 | 22.78° C | 47% | 1021 hPa | 0 mm | - | 0 W/m² | - |
| 1777621625 | 22.78° C | 46% | 1021 hPa | 0 mm | - | 0 W/m² | - |
| 1777620727 | 23.33° C | 44% | 1021 hPa | 0 mm | - | 3 W/m² | - |
| 1777619824 | 24.44° C | 42% | 1021 hPa | 0 mm | - | 11 W/m² | - |
| 1777618924 | 25° C | 41% | 1021 hPa | 0 mm | - | 20 W/m² | - |
| 1777618024 | 25.56° C | 41% | 1021.4 hPa | 0 mm | - | 27 W/m² | - |
| 1777617124 | 25.56° C | 41% | 1021 hPa | 0 mm | - | 37 W/m² | - |
| 1777616224 | 26.11° C | 40% | 1021.4 hPa | 0 mm | - | 43 W/m² | - |
| 1777615324 | 26.67° C | 39% | 1021.4 hPa | 0 mm | - | 53 W/m² | - |
| 1777614424 | 26.67° C | 38% | 1021.4 hPa | 0 mm | - | 68 W/m² | - |
| 1777613524 | 27.22° C | 37% | 1021.4 hPa | 0 mm | - | 190 W/m² | - |
| 1777612625 | 27.78° C | 36% | 1021.4 hPa | 0 mm | - | 86 W/m² | - |
| 1777611724 | 28.33° C | 35% | 1021.4 hPa | 0 mm | - | 242 W/m² | - |
| 1777610824 | 28.33° C | 36% | 1021.4 hPa | 0 mm | - | 279 W/m² | - |
| 1777609924 | 28.89° C | 35% | 1021.4 hPa | 0 mm | - | 334 W/m² | - |
| 1777609024 | 29.44° C | 36% | 1021.7 hPa | 0 mm | - | 382 W/m² | - |
* Rain latest hour (hover to see other rain measurements)
** Current wind speed in m/s (hover to see current wind gust speed)